Time;durP1;ratioP1;P1;durP2;ratioP2;P2;SDS_P1;SDS_P2;PMS_P1;PMS_P2;Temp;Humidity;BMP_temperature;BMP_pressure;BME280_temperature;BME280_humidity;BME280_pressure;Samples;Min_cycle;Max_cycle;Signal;HPM_P1;HPM_P2
2023/09/25 00:01:02;;;;;;;2.17;0.88;;;;;;;24.05;50.46;101581.56;5020098;28;20064;-61
2023/09/25 00:03:29;;;;;;;2.75;0.93;;;;;;;24.05;50.66;101584.25;5018563;28;20053;-61
2023/09/25 00:05:57;;;;;;;1.98;0.90;;;;;;;24.06;50.44;101585.97;5018268;28;20050;-60
2023/09/25 00:08:24;;;;;;;2.30;1.20;;;;;;;24.06;50.81;101585.13;5019602;28;20049;-59
2023/09/25 00:10:52;;;;;;;2.38;1.00;;;;;;;24.05;50.82;101581.56;5019716;28;20046;-60
2023/09/25 00:13:20;;;;;;;1.85;0.93;;;;;;;24.05;50.69;101580.72;5017659;28;20384;-60
2023/09/25 00:15:47;;;;;;;3.85;1.50;;;;;;;24.05;50.75;101578.00;5018078;28;20062;-59
2023/09/25 00:18:16;;;;;;;1.80;0.82;;;;;;;24.05;50.77;101581.56;5019864;28;20401;-60
2023/09/25 00:20:44;;;;;;;2.30;0.90;;;;;;;24.04;50.82;101589.81;5029119;28;20057;-61
2023/09/25 00:23:12;;;;;;;2.45;1.00;;;;;;;24.04;50.77;101587.13;5016675;28;20049;-61
2023/09/25 00:25:39;;;;;;;3.08;1.08;;;;;;;24.04;50.82;101574.44;5017485;28;20058;-61
2023/09/25 00:28:07;;;;;;;1.85;0.73;;;;;;;24.04;50.51;101587.13;5019904;28;20061;-61
2023/09/25 00:30:34;;;;;;;2.83;1.17;;;;;;;24.03;50.83;101588.97;5017581;28;20056;-61
2023/09/25 00:33:02;;;;;;;2.08;1.00;;;;;;;24.03;50.87;101593.53;4996583;28;20540;-61
2023/09/25 00:35:29;;;;;;;2.30;0.70;;;;;;;24.05;50.48;101591.53;5010155;28;20521;-61
2023/09/25 00:37:57;;;;;;;4.63;1.30;;;;;;;24.03;50.50;101597.09;5019280;28;20428;-61
2023/09/25 00:40:24;;;;;;;1.80;0.80;;;;;;;24.05;50.72;101591.53;5016866;28;20063;-61
2023/09/25 00:42:54;;;;;;;1.98;0.85;;;;;;;24.04;50.54;101597.94;5016128;28;20058;-61
2023/09/25 00:45:22;;;;;;;3.10;1.00;;;;;;;24.02;50.42;101591.81;5015313;28;20504;-61
2023/09/25 00:47:51;;;;;;;1.77;0.98;;;;;;;24.03;50.84;101583.56;5017777;28;20057;-61
2023/09/25 00:50:19;;;;;;;2.70;1.08;;;;;;;24.02;50.48;101581.84;5017826;28;20056;-61
2023/09/25 00:52:47;;;;;;;2.17;1.00;;;;;;;24.02;50.68;101591.81;5023464;28;20492;-61
2023/09/25 00:55:16;;;;;;;1.45;0.90;;;;;;;24.02;50.68;101595.38;5016883;28;20503;-61
2023/09/25 00:57:47;;;;;;;2.67;1.05;;;;;;;24.02;50.58;101591.81;5020487;28;20041;-61
2023/09/25 01:00:15;;;;;;;2.90;1.10;;;;;;;24.02;50.59;101592.66;5019044;28;20057;-60
2023/09/25 01:02:42;;;;;;;1.70;0.90;;;;;;;24.02;50.99;101591.81;5017334;28;20045;-60
2023/09/25 01:05:10;;;;;;;1.98;0.82;;;;;;;24.01;50.54;101590.97;5018874;28;20045;-60
2023/09/25 01:07:38;;;;;;;1.50;0.70;;;;;;;24.01;50.99;101590.97;5022619;28;20068;-59
2023/09/25 01:10:10;;;;;;;1.58;0.80;;;;;;;24.03;50.74;101593.53;5018888;28;20053;-60
2023/09/25 01:12:37;;;;;;;2.00;0.90;;;;;;;24.00;50.84;101586.56;5017399;28;20054;-61
2023/09/25 01:15:05;;;;;;;1.88;0.73;;;;;;;24.01;50.52;101590.97;5018473;28;20057;-61
2023/09/25 01:17:33;;;;;;;3.92;1.05;;;;;;;24.01;50.80;101590.97;5021479;28;20506;-61
2023/09/25 01:20:06;;;;;;;2.95;1.20;;;;;;;24.01;50.68;101592.81;5018605;28;20519;-59
2023/09/25 01:22:33;;;;;;;1.88;1.08;;;;;;;24.02;50.50;101608.03;5018963;28;20053;-60
2023/09/25 01:25:01;;;;;;;1.88;0.95;;;;;;;24.01;50.88;101609.91;5021976;28;20042;-60
2023/09/25 01:27:29;;;;;;;2.30;0.98;;;;;;;24.01;50.54;101606.34;5026307;28;20049;-60
2023/09/25 01:29:56;;;;;;;1.70;0.90;;;;;;;24.02;50.51;101608.88;5025759;28;20048;-60
2023/09/25 01:32:25;;;;;;;2.67;1.13;;;;;;;24.01;50.60;101603.63;5016048;28;20054;-60
2023/09/25 01:34:52;;;;;;;2.33;0.93;;;;;;;24.01;50.46;101596.38;5008480;28;20053;-60
2023/09/25 01:37:20;;;;;;;2.05;0.93;;;;;;;24.02;50.67;101608.03;5025451;28;20049;-60
2023/09/25 01:39:47;;;;;;;2.50;1.00;;;;;;;24.00;50.88;101607.34;5023495;28;20049;-60
2023/09/25 01:42:15;;;;;;;1.73;0.85;;;;;;;24.00;50.64;101605.50;5025949;28;20046;-61
2023/09/25 01:44:42;;;;;;;2.30;1.08;;;;;;;24.00;50.82;101597.38;5020388;28;20081;-61
2023/09/25 01:47:09;;;;;;;2.42;1.10;;;;;;;24.01;50.38;101600.94;5023751;28;20045;-61
2023/09/25 01:49:37;;;;;;;3.10;0.75;;;;;;;24.00;50.48;101586.56;5023789;28;20053;-60
2023/09/25 01:52:07;;;;;;;1.95;1.00;;;;;;;24.00;50.38;101583.00;5023632;28;20050;-61
2023/09/25 01:54:35;;;;;;;2.08;1.20;;;;;;;23.99;50.45;101582.16;5025279;28;20068;-61
2023/09/25 01:57:04;;;;;;;1.77;0.82;;;;;;;23.99;50.38;101567.78;5023930;28;20538;-61
2023/09/25 01:59:32;;;;;;;1.80;0.82;;;;;;;23.98;50.24;101561.50;5014480;28;20057;-61
2023/09/25 02:01:59;;;;;;;2.97;1.08;;;;;;;23.99;50.42;101560.50;5021995;28;20050;-61
2023/09/25 02:04:27;;;;;;;1.98;0.80;;;;;;;23.99;50.37;101554.25;5025369;28;20049;-61
2023/09/25 02:06:55;;;;;;;1.55;0.75;;;;;;;23.99;50.24;101559.66;5022363;28;20061;-60
2023/09/25 02:09:23;;;;;;;3.00;0.90;;;;;;;23.98;50.08;101564.19;5021281;28;20531;-60
2023/09/25 02:11:50;;;;;;;2.85;1.10;;;;;;;23.98;50.32;101561.50;5023777;28;20056;-61
2023/09/25 02:14:18;;;;;;;1.50;0.60;;;;;;;23.97;50.20;101567.91;5026447;28;20042;-61
2023/09/25 02:16:45;;;;;;;2.05;0.98;;;;;;;23.98;50.27;101577.72;5022521;28;20049;-61
2023/09/25 02:19:13;;;;;;;2.00;0.70;;;;;;;23.98;50.13;101582.28;5022961;28;20057;-61
2023/09/25 02:21:41;;;;;;;1.58;0.70;;;;;;;23.97;50.28;101586.84;5023445;28;20045;-61
2023/09/25 02:24:08;;;;;;;2.03;0.80;;;;;;;23.98;50.13;101577.72;5033559;28;20423;-61
2023/09/25 02:26:36;;;;;;;1.77;0.75;;;;;;;23.98;50.21;101577.72;5031587;28;20467;-61
2023/09/25 02:29:03;;;;;;;2.47;0.75;;;;;;;23.98;49.92;101568.75;5033504;28;20058;-60
2023/09/25 02:31:31;;;;;;;1.83;0.70;;;;;;;23.96;50.18;101571.63;5033489;28;20056;-60
2023/09/25 02:33:58;;;;;;;1.42;0.70;;;;;;;23.98;50.00;101579.56;5008384;28;20066;-60
2023/09/25 02:36:26;;;;;;;2.03;0.82;;;;;;;23.96;50.20;101573.47;5015033;28;20041;-59
2023/09/25 02:38:53;;;;;;;2.95;1.10;;;;;;;23.97;50.05;101565.19;5014842;28;20053;-60
2023/09/25 02:41:21;;;;;;;3.30;0.90;;;;;;;23.96;49.92;101565.34;5021578;28;20061;-60
2023/09/25 02:43:48;;;;;;;2.10;1.00;;;;;;;23.97;49.86;101572.47;5024540;28;20419;-59
2023/09/25 02:46:15;;;;;;;1.55;0.77;;;;;;;23.95;50.10;101574.47;5023397;28;20038;-60
2023/09/25 02:48:43;;;;;;;1.80;1.00;;;;;;;23.97;49.79;101572.47;5029425;28;20053;-60
2023/09/25 02:51:10;;;;;;;1.50;0.70;;;;;;;23.96;49.74;101577.03;5022215;28;20054;-61
2023/09/25 02:53:38;;;;;;;1.80;0.90;;;;;;;23.95;49.70;101569.91;5024175;28;20053;-61
2023/09/25 02:56:05;;;;;;;1.70;0.80;;;;;;;23.94;49.74;101565.47;5023605;28;20505;-61
2023/09/25 02:58:33;;;;;;;2.78;0.90;;;;;;;23.95;49.81;101567.22;5036670;28;20054;-60
2023/09/25 03:01:01;;;;;;;2.53;1.20;;;;;;;23.95;49.71;101567.22;5022694;28;20050;-61
2023/09/25 03:03:29;;;;;;;1.50;0.60;;;;;;;23.95;50.18;101564.50;5025927;28;20049;-61
2023/09/25 03:05:57;;;;;;;2.20;1.02;;;;;;;23.94;49.73;101560.06;5015151;28;20057;-60
2023/09/25 03:08:24;;;;;;;3.60;0.95;;;;;;;23.95;49.82;101563.66;5028968;28;20519;-60
2023/09/25 03:10:51;;;;;;;1.88;0.73;;;;;;;23.94;49.82;101565.47;5021258;28;20061;-60
2023/09/25 03:13:19;;;;;;;1.80;0.77;;;;;;;23.94;49.95;101568.19;5025402;28;20044;-61
2023/09/25 03:15:46;;;;;;;1.67;0.73;;;;;;;23.93;50.09;101559.22;5021723;28;20050;-61
2023/09/25 03:18:14;;;;;;;2.00;0.70;;;;;;;23.95;49.82;101564.50;5015349;28;20068;-60
2023/09/25 03:20:42;;;;;;;1.38;0.60;;;;;;;23.94;49.77;101560.06;5023942;28;20488;-61
2023/09/25 03:23:09;;;;;;;1.73;0.70;;;;;;;23.93;49.73;101558.38;5040132;28;20056;-61
2023/09/25 03:25:41;;;;;;;1.48;0.80;;;;;;;23.93;49.59;101561.94;5022644;28;20072;-61
2023/09/25 03:28:08;;;;;;;1.98;0.80;;;;;;;23.92;49.56;101568.34;5036124;28;20757;-61
2023/09/25 03:30:36;;;;;;;2.58;0.90;;;;;;;23.93;49.87;101566.47;5023202;28;20053;-60
2023/09/25 03:33:04;;;;;;;0.82;0.40;;;;;;;23.93;49.74;101569.19;5025256;28;20053;-59
2023/09/25 03:35:31;;;;;;;1.67;0.50;;;;;;;23.92;49.71;101567.50;5000118;28;20037;-59
2023/09/25 03:37:59;;;;;;;1.63;0.70;;;;;;;23.92;49.62;101571.03;5015309;28;20061;-60
2023/09/25 03:40:26;;;;;;;1.63;0.63;;;;;;;23.91;49.46;101577.47;5021369;28;20049;-61
2023/09/25 03:42:55;;;;;;;2.30;0.90;;;;;;;23.92;49.74;101573.75;5023413;28;20071;-61
2023/09/25 03:45:22;;;;;;;1.95;0.65;;;;;;;23.91;49.56;101573.91;5020327;28;20053;-60
2023/09/25 03:47:52;;;;;;;2.05;0.80;;;;;;;23.92;49.76;101575.59;5019335;28;20050;-61
2023/09/25 03:50:19;;;;;;;2.00;0.95;;;;;;;23.92;49.71;101578.31;5023184;28;20382;-59
2023/09/25 03:52:46;;;;;;;1.77;0.60;;;;;;;23.92;49.68;101591.84;5027491;28;20064;-60
2023/09/25 03:55:14;;;;;;;2.70;0.93;;;;;;;23.91;49.33;101596.38;5033241;28;20432;-60
2023/09/25 03:57:41;;;;;;;1.75;0.80;;;;;;;23.92;49.39;101591.84;5031365;28;20057;-60
2023/09/25 04:00:10;;;;;;;2.10;1.00;;;;;;;23.91;49.53;101590.97;5031422;28;20045;-61
2023/09/25 04:02:38;;;;;;;2.05;0.82;;;;;;;23.90;49.71;101597.41;5030876;28;20057;-61
2023/09/25 04:05:05;;;;;;;2.30;0.77;;;;;;;23.90;49.37;101599.22;5027878;28;20038;-61
2023/09/25 04:07:33;;;;;;;2.20;0.90;;;;;;;23.91;49.79;101609.06;5031178;28;20052;-61
2023/09/25 04:10:02;;;;;;;1.67;0.85;;;;;;;23.90;49.59;101613.63;5031690;28;20049;-60
2023/09/25 04:12:29;;;;;;;1.48;0.60;;;;;;;23.91;49.67;101600.94;5030771;28;20088;-59
2023/09/25 04:14:57;;;;;;;1.55;0.70;;;;;;;23.90;49.39;101599.22;5025997;28;20057;-59
2023/09/25 04:17:25;;;;;;;2.03;0.80;;;;;;;23.91;49.63;101611.78;5030483;28;20057;-60
2023/09/25 04:19:52;;;;;;;2.17;0.65;;;;;;;23.89;49.69;101611.91;5030561;28;20045;-60
2023/09/25 04:22:20;;;;;;;1.45;0.70;;;;;;;23.90;49.47;101604.63;5030926;28;20076;-60
2023/09/25 04:24:48;;;;;;;2.10;0.77;;;;;;;23.89;49.51;101601.06;5025452;28;20391;-60
2023/09/25 04:27:15;;;;;;;1.40;0.63;;;;;;;23.90;49.58;101610.03;5030725;28;20064;-60
2023/09/25 04:29:43;;;;;;;1.80;0.60;;;;;;;23.89;49.46;101611.91;5031371;28;20056;-60
2023/09/25 04:32:10;;;;;;;1.58;0.70;;;;;;;23.90;49.57;101613.63;5030498;28;20057;-60
2023/09/25 04:34:38;;;;;;;2.42;0.80;;;;;;;23.90;49.40;101618.16;5022906;28;20057;-60
2023/09/25 04:37:08;;;;;;;2.83;0.70;;;;;;;23.88;49.47;101623.72;4996448;28;20062;-60
2023/09/25 04:39:35;;;;;;;1.45;0.70;;;;;;;23.88;49.59;101612.03;5022152;28;20065;-60
2023/09/25 04:42:03;;;;;;;2.00;0.80;;;;;;;23.87;49.47;101616.59;5029846;28;20045;-61
2023/09/25 04:44:30;;;;;;;1.88;0.70;;;;;;;23.89;49.48;101625.41;5019681;28;20052;-61
2023/09/25 04:46:59;;;;;;;1.45;0.70;;;;;;;23.89;49.28;101635.38;5020156;28;20483;-60
2023/09/25 04:49:26;;;;;;;2.20;0.80;;;;;;;23.88;49.14;101639.94;5029254;28;20049;-60
2023/09/25 04:51:54;;;;;;;1.38;0.63;;;;;;;23.89;49.49;101635.38;5026767;28;20042;-59
2023/09/25 04:54:21;;;;;;;1.63;0.65;;;;;;;23.88;49.38;101639.09;5019794;28;20053;-59
2023/09/25 04:56:49;;;;;;;1.73;0.63;;;;;;;23.88;49.48;101636.38;5020069;28;20045;-59
2023/09/25 04:59:16;;;;;;;1.65;0.63;;;;;;;23.88;49.33;101644.50;5022007;28;20068;-61
2023/09/25 05:01:44;;;;;;;2.40;0.65;;;;;;;23.88;49.43;101644.50;5023359;28;20045;-61
2023/09/25 05:04:12;;;;;;;1.92;0.73;;;;;;;23.88;49.47;101641.78;5020270;28;20050;-61
2023/09/25 05:06:39;;;;;;;2.22;0.80;;;;;;;23.87;49.53;101649.06;5019696;28;20046;-61
2023/09/25 05:09:07;;;;;;;1.50;0.70;;;;;;;23.87;49.46;101642.78;5023045;28;20052;-60
2023/09/25 05:11:35;;;;;;;4.25;0.80;;;;;;;23.86;49.25;101641.06;5023158;28;20393;-60
2023/09/25 05:14:03;;;;;;;1.42;0.65;;;;;;;23.87;49.34;101640.09;5020007;28;20045;-59
2023/09/25 05:16:31;;;;;;;1.30;0.60;;;;;;;23.86;49.32;101647.34;5019761;28;20580;-60
2023/09/25 05:18:59;;;;;;;1.92;0.90;;;;;;;23.86;49.15;101652.75;5023212;28;20053;-59
2023/09/25 05:21:26;;;;;;;1.17;0.50;;;;;;;23.82;49.17;101645.94;5022718;28;20052;-59
2023/09/25 05:23:55;;;;;;;1.98;0.70;;;;;;;23.78;48.61;101644.50;5019967;28;20408;-60
2023/09/25 05:26:22;;;;;;;2.35;0.93;;;;;;;23.75;48.51;101654.75;5020147;28;20049;-60
2023/09/25 05:28:50;;;;;;;1.92;0.88;;;;;;;23.73;48.32;101649.47;5023117;28;20065;-59
2023/09/25 05:31:17;;;;;;;2.65;0.98;;;;;;;23.69;48.01;101659.69;5024367;28;20486;-60
2023/09/25 05:33:45;;;;;;;1.77;0.80;;;;;;;23.67;47.89;101655.44;5020052;28;20046;-59
2023/09/25 05:36:12;;;;;;;3.33;1.00;;;;;;;23.62;47.69;101653.13;5013227;28;20051;-60
2023/09/25 05:38:40;;;;;;;2.03;0.85;;;;;;;23.61;47.30;101667.63;5004666;28;20411;-64
2023/09/25 05:41:07;;;;;;;3.13;1.00;;;;;;;23.58;47.23;101657.13;5022346;28;20041;-60
2023/09/25 05:43:35;;;;;;;2.72;0.88;;;;;;;23.57;47.57;101654.53;5019632;28;20050;-60
2023/09/25 05:46:02;;;;;;;3.70;0.75;;;;;;;23.57;47.77;101657.22;5016656;28;20057;-60
2023/09/25 05:48:29;;;;;;;1.80;0.90;;;;;;;23.55;47.79;101651.97;5022778;28;20398;-65
2023/09/25 05:50:57;;;;;;;1.55;0.73;;;;;;;23.56;47.85;101655.53;5021791;28;20403;-65
2023/09/25 05:53:25;;;;;;;2.60;1.15;;;;;;;23.55;47.64;101656.53;5021393;28;20057;-65
2023/09/25 05:55:53;;;;;;;3.70;1.67;;;;;;;23.53;47.57;101655.81;5019606;28;20049;-65
2023/09/25 05:58:20;;;;;;;3.35;1.30;;;;;;;23.51;47.40;101658.66;5022689;28;20117;-62
2023/09/25 06:00:47;;;;;;;1.85;0.90;;;;;;;23.49;47.08;101655.22;5028294;28;20061;-60
2023/09/25 06:03:15;;;;;;;2.78;0.77;;;;;;;23.49;47.36;101662.47;5026731;28;20114;-60
2023/09/25 06:05:43;;;;;;;2.28;0.80;;;;;;;23.48;47.26;101666.19;5028884;28;20049;-60
2023/09/25 06:08:11;;;;;;;2.00;0.88;;;;;;;23.47;47.42;101668.03;5029436;28;20049;-60
2023/09/25 06:10:39;;;;;;;2.00;1.00;;;;;;;23.47;47.25;101668.03;5028849;28;20049;-60
2023/09/25 06:13:07;;;;;;;2.15;0.93;;;;;;;23.48;47.24;101674.28;5029217;28;20058;-60
2023/09/25 06:15:34;;;;;;;2.42;1.25;;;;;;;23.49;47.47;101676.84;5032695;28;20049;-60
2023/09/25 06:18:06;;;;;;;1.77;0.80;;;;;;;23.50;47.50;101675.00;5032671;28;20037;-60
2023/09/25 06:20:36;;;;;;;2.45;0.98;;;;;;;23.50;47.42;101673.16;5030549;28;20053;-61
2023/09/25 06:23:04;;;;;;;2.28;1.02;;;;;;;23.50;47.40;101673.16;5031582;28;20056;-60
2023/09/25 06:25:32;;;;;;;4.43;1.10;;;;;;;23.52;47.54;101671.16;5032092;28;20045;-59
2023/09/25 06:27:59;;;;;;;1.85;0.95;;;;;;;23.54;47.62;101676.47;5031935;28;20037;-59
2023/09/25 06:30:27;;;;;;;1.77;0.90;;;;;;;23.55;47.94;101670.91;5030123;28;20045;-60
2023/09/25 06:32:55;;;;;;;2.20;1.08;;;;;;;23.57;47.81;101668.03;5030770;28;20058;-60
2023/09/25 06:35:23;;;;;;;1.85;0.82;;;;;;;23.58;47.96;101662.53;5031449;28;20041;-60
2023/09/25 06:37:51;;;;;;;1.63;0.70;;;;;;;23.61;48.17;101666.78;5031086;28;20046;-60
2023/09/25 06:40:19;;;;;;;2.10;1.00;;;;;;;23.62;48.43;101676.63;5029088;28;20058;-60
2023/09/25 06:42:46;;;;;;;2.35;1.20;;;;;;;23.62;48.27;101674.75;5031195;28;20471;-60
2023/09/25 06:45:14;;;;;;;1.80;0.75;;;;;;;23.65;48.40;101682.59;5032174;28;20048;-60
2023/09/25 06:47:42;;;;;;;1.83;0.90;;;;;;;23.67;48.46;101687.88;5031919;28;20056;-60
2023/09/25 06:50:11;;;;;;;2.75;0.77;;;;;;;23.67;48.44;101691.44;5029476;28;20049;-64
2023/09/25 06:52:40;;;;;;;2.20;0.80;;;;;;;23.67;48.31;101691.44;5028858;28;20060;-62
2023/09/25 06:55:08;;;;;;;2.45;0.93;;;;;;;23.69;48.68;101685.88;5026412;28;20052;-57
2023/09/25 06:57:35;;;;;;;2.20;0.73;;;;;;;23.71;48.80;101685.75;5031724;28;20137;-57
2023/09/25 07:00:04;;;;;;;3.90;1.05;;;;;;;23.72;48.54;101687.47;5028962;28;20046;-62
2023/09/25 07:02:32;;;;;;;2.83;0.88;;;;;;;23.73;48.23;101687.31;5027732;28;20408;-63
2023/09/25 07:04:59;;;;;;;3.10;1.25;;;;;;;23.74;48.10;101685.47;5031817;28;20045;-63
2023/09/25 07:07:27;;;;;;;4.85;1.85;;;;;;;23.65;47.26;101690.72;5029708;28;20049;-63
2023/09/25 07:09:55;;;;;;;3.10;1.30;;;;;;;23.50;46.31;101693.91;5031435;28;20065;-58
2023/09/25 07:12:22;;;;;;;4.20;2.00;;;;;;;23.19;45.88;101684.03;5032043;28;20049;-58
2023/09/25 07:14:55;;;;;;;3.45;1.33;;;;;;;22.94;45.98;101685.34;5029343;28;20052;-57
2023/09/25 07:17:24;;;;;;;3.35;1.10;;;;;;;22.88;46.12;101690.38;5023452;28;20053;-58
2023/09/25 07:19:52;;;;;;;2.25;1.05;;;;;;;22.91;46.39;101690.16;5028204;28;20416;-63
2023/09/25 07:22:23;;;;;;;2.70;0.90;;;;;;;22.94;46.66;101682.63;5030837;28;20491;-63
2023/09/25 07:24:50;;;;;;;2.03;0.95;;;;;;;23.02;46.72;101689.22;5031363;28;20419;-63
2023/09/25 07:27:18;;;;;;;2.60;1.58;;;;;;;23.08;47.11;101692.22;5030374;28;20400;-63
2023/09/25 07:29:47;;;;;;;1.95;1.00;;;;;;;23.13;47.12;101695.38;5028415;28;20053;-58
2023/09/25 07:32:15;;;;;;;1.88;0.90;;;;;;;23.20;46.97;101698.38;5030937;28;20491;-58
2023/09/25 07:34:43;;;;;;;3.40;1.00;;;;;;;23.25;46.92;101693.41;5030903;28;20056;-58
2023/09/25 07:37:12;;;;;;;1.58;0.70;;;;;;;23.30;47.01;101691.19;5029351;28;20060;-58
2023/09/25 07:39:40;;;;;;;2.28;0.85;;;;;;;23.34;46.99;101694.47;5028548;28;20570;-58
2023/09/25 07:42:09;;;;;;;2.25;1.00;;;;;;;23.37;47.33;101689.63;5031222;28;20048;-58
2023/09/25 07:44:36;;;;;;;2.45;0.90;;;;;;;23.40;47.00;101683.09;5030587;28;20054;-58
2023/09/25 07:47:10;;;;;;;2.45;1.02;;;;;;;23.43;47.04;101689.06;5029003;28;20049;-58
2023/09/25 07:49:44;;;;;;;2.08;1.17;;;;;;;23.45;46.79;101691.63;5029586;28;20053;-58
2023/09/25 07:52:16;;;;;;;2.22;1.13;;;;;;;23.48;46.82;101687.81;5030609;28;20049;-58
2023/09/25 07:54:49;;;;;;;1.63;0.90;;;;;;;23.49;46.94;101697.63;5030444;28;20056;-58
2023/09/25 07:57:21;;;;;;;2.50;1.15;;;;;;;23.49;46.66;101695.75;5025127;28;20057;-58
2023/09/25 07:59:49;;;;;;;2.38;0.82;;;;;;;23.50;46.89;101694.78;5030633;28;20049;-63
2023/09/25 08:02:20;;;;;;;2.85;1.10;;;;;;;23.52;47.02;101697.34;5030587;28;20396;-60
2023/09/25 08:04:49;;;;;;;3.30;1.02;;;;;;;23.56;46.80;101704.19;5022468;28;20045;-60
2023/09/25 08:07:18;;;;;;;2.67;1.25;;;;;;;23.58;46.74;101707.63;5029174;28;20516;-60
2023/09/25 08:09:47;;;;;;;3.25;0.95;;;;;;;23.58;46.42;101715.72;5025397;28;20514;-60
2023/09/25 08:12:14;;;;;;;3.10;1.02;;;;;;;23.59;46.13;101703.91;5030196;28;20072;-60
2023/09/25 08:14:42;;;;;;;2.78;1.23;;;;;;;23.60;45.95;101709.16;5027682;28;20049;-60
2023/09/25 08:17:09;;;;;;;3.70;1.30;;;;;;;23.62;45.94;101706.34;5029045;28;20405;-60
2023/09/25 08:19:37;;;;;;;5.05;1.20;;;;;;;23.65;46.08;101712.34;5029781;28;20057;-60
2023/09/25 08:22:04;;;;;;;2.95;1.17;;;;;;;23.66;46.07;101708.66;5030139;28;20396;-60
2023/09/25 08:24:32;;;;;;;2.55;1.42;;;;;;;23.68;45.85;101708.50;5028051;28;20050;-60
2023/09/25 08:27:00;;;;;;;3.72;1.27;;;;;;;23.69;46.07;101710.22;5032357;28;20054;-60
2023/09/25 08:29:27;;;;;;;3.78;1.30;;;;;;;23.69;46.19;101711.06;5030718;28;20045;-60
2023/09/25 08:31:55;;;;;;;3.30;1.20;;;;;;;23.69;45.82;101711.06;5030125;28;20045;-60
2023/09/25 08:34:22;;;;;;;1.73;0.77;;;;;;;23.72;46.04;101703.69;5020671;28;20052;-60
2023/09/25 08:36:50;;;;;;;2.47;0.90;;;;;;;23.73;46.42;101708.09;5022895;28;20060;-61
2023/09/25 08:39:17;;;;;;;2.10;0.90;;;;;;;23.74;46.82;101707.97;5028743;28;20411;-58
2023/09/25 08:41:46;;;;;;;2.33;1.00;;;;;;;23.75;46.64;101711.53;5023754;28;20060;-58
2023/09/25 08:44:15;;;;;;;3.33;0.88;;;;;;;23.76;46.85;101710.53;5025674;28;20041;-58
2023/09/25 08:46:44;;;;;;;2.22;1.00;;;;;;;23.78;46.59;101708.50;5028830;28;20045;-58
2023/09/25 08:49:12;;;;;;;2.65;1.05;;;;;;;23.78;46.54;101704.00;5027289;28;20053;-61
2023/09/25 08:51:40;;;;;;;1.90;0.80;;;;;;;23.77;46.13;101709.53;5041192;28;20535;-60
2023/09/25 08:54:08;;;;;;;4.25;1.33;;;;;;;23.78;46.38;101713.91;5023923;28;20404;-60
2023/09/25 08:56:36;;;;;;;2.03;1.00;;;;;;;23.78;46.54;101713.91;5026063;28;20041;-60
2023/09/25 08:59:05;;;;;;;2.03;0.80;;;;;;;23.79;46.53;101712.94;5020310;28;20057;-60
2023/09/25 09:01:34;;;;;;;2.20;0.95;;;;;;;23.79;46.87;101710.25;5023579;28;20403;-60
2023/09/25 09:04:02;;;;;;;2.10;0.93;;;;;;;23.80;46.71;101706.53;5020042;28;20057;-60
2023/09/25 09:06:30;;;;;;;1.80;0.77;;;;;;;23.79;46.88;101700.28;5019987;28;20072;-61
2023/09/25 09:08:58;;;;;;;1.90;1.10;;;;;;;23.81;46.90;101713.66;5021879;28;20050;-60
2023/09/25 09:11:25;;;;;;;2.00;0.80;;;;;;;23.80;46.83;101709.25;5023579;28;20045;-61
2023/09/25 09:13:53;;;;;;;2.13;1.00;;;;;;;23.80;46.97;101707.41;5029180;28;20049;-60
2023/09/25 09:16:20;;;;;;;2.65;0.90;;;;;;;23.81;46.94;101702.84;5019806;28;20065;-61
2023/09/25 09:18:48;;;;;;;2.85;0.93;;;;;;;23.82;46.70;101699.13;5021977;28;20058;-58
2023/09/25 09:21:25;;;;;;;1.77;0.88;;;;;;;23.81;46.96;101703.69;5023312;28;20060;-58
2023/09/25 09:23:54;;;;;;;3.25;1.15;;;;;;;23.79;46.97;101696.72;5017123;28;20065;-59
2023/09/25 09:26:23;;;;;;;4.45;1.10;;;;;;;23.78;46.83;101697.69;5019409;28;20050;-58
2023/09/25 09:28:53;;;;;;;1.95;0.95;;;;;;;23.78;46.47;101697.69;5020524;28;20061;-58
2023/09/25 09:31:21;;;;;;;1.70;0.80;;;;;;;23.77;46.60;101696.00;5027663;28;20057;-58
2023/09/25 09:33:48;;;;;;;2.15;1.00;;;;;;;23.78;46.80;101692.28;5028200;28;20046;-58
2023/09/25 09:36:19;;;;;;;2.50;0.70;;;;;;;23.78;47.25;101684.19;5029494;28;20384;-58
2023/09/25 09:38:48;;;;;;;1.73;0.70;;;;;;;23.79;47.41;101699.44;5029323;28;20057;-58
2023/09/25 09:41:17;;;;;;;1.83;0.90;;;;;;;23.79;47.34;101683.22;5026818;28;20080;-58
2023/09/25 09:43:47;;;;;;;1.58;0.85;;;;;;;23.80;47.23;101684.91;5029002;28;20407;-58
2023/09/25 09:46:16;;;;;;;2.17;0.80;;;;;;;23.81;47.50;101678.50;5030938;28;20518;-58
2023/09/25 09:48:46;;;;;;;2.90;0.90;;;;;;;23.81;47.50;101682.06;5032948;28;20052;-58
2023/09/25 09:51:16;;;;;;;3.65;1.00;;;;;;;23.81;47.38;101679.34;5026516;28;20061;-58
2023/09/25 09:53:45;;;;;;;1.60;0.57;;;;;;;23.83;47.62;101673.81;5033216;28;20056;-58
2023/09/25 09:56:15;;;;;;;2.30;0.95;;;;;;;23.83;47.74;101679.22;5025315;28;20050;-58
2023/09/25 09:58:43;;;;;;;1.77;0.65;;;;;;;23.84;47.68;101675.53;5026321;28;20046;-58
2023/09/25 10:01:12;;;;;;;1.45;0.55;;;;;;;23.84;47.65;101683.63;5021766;28;20487;-58
2023/09/25 10:03:40;;;;;;;2.00;1.00;;;;;;;23.84;47.44;101681.78;5023082;28;20523;-58
2023/09/25 10:06:10;;;;;;;1.48;0.60;;;;;;;23.85;47.48;101679.94;5026405;28;20419;-58
2023/09/25 10:08:38;;;;;;;1.80;0.80;;;;;;;23.86;47.52;101681.63;5025391;28;20045;-63
2023/09/25 10:11:16;;;;;;;1.80;0.85;;;;;;;23.86;47.49;101681.63;5022757;28;20041;-63
2023/09/25 10:13:43;;;;;;;2.42;0.88;;;;;;;23.86;47.44;101684.34;5023938;28;20046;-63
2023/09/25 10:16:14;;;;;;;2.08;0.93;;;;;;;23.85;47.56;101683.47;5027077;28;20045;-63
2023/09/25 10:18:42;;;;;;;1.95;0.70;;;;;;;23.86;47.78;101685.22;5023463;28;20057;-63
2023/09/25 10:21:16;;;;;;;1.85;0.77;;;;;;;23.87;47.62;101680.66;5015600;28;20045;-63
2023/09/25 10:23:49;;;;;;;2.13;0.88;;;;;;;23.86;47.66;101682.50;5025540;28;20050;-63
2023/09/25 10:26:23;;;;;;;2.63;0.80;;;;;;;23.87;47.70;101676.09;5026046;28;20060;-63
2023/09/25 10:29:18;;;;;;;1.58;0.70;;;;;;;23.87;47.85;101680.66;5023004;28;20488;-58
2023/09/25 10:31:47;;;;;;;2.10;0.73;;;;;;;23.86;47.76;101677.09;5016134;28;20491;-58
2023/09/25 10:34:15;;;;;;;2.15;0.80;;;;;;;23.86;47.23;101673.50;5024721;28;20053;-58
2023/09/25 10:36:45;;;;;;;1.90;0.85;;;;;;;23.87;47.45;101673.41;5037433;28;20054;-58
2023/09/25 10:39:16;;;;;;;2.72;0.95;;;;;;;23.87;47.09;101664.44;5016012;28;20037;-63
2023/09/25 10:41:48;;;;;;;2.65;1.00;;;;;;;23.87;47.08;101665.28;5024699;28;20060;-60
2023/09/25 10:44:16;;;;;;;2.00;0.90;;;;;;;23.84;46.44;101654.75;5023045;28;20411;-61
2023/09/25 10:46:43;;;;;;;2.95;1.20;;;;;;;23.81;45.83;101656.88;5022135;28;20046;-61
2023/09/25 10:49:11;;;;;;;3.53;1.08;;;;;;;23.76;45.65;101656.44;5023789;28;20050;-60
2023/09/25 10:51:39;;;;;;;1.95;1.00;;;;;;;23.69;45.15;101657.00;5026064;28;20403;-61
2023/09/25 10:54:06;;;;;;;1.98;1.13;;;;;;;23.64;44.50;101642.16;5022443;28;20057;-61
2023/09/25 10:56:34;;;;;;;2.00;0.98;;;;;;;23.61;44.02;101639.75;5015376;28;20061;-61
2023/09/25 10:59:02;;;;;;;3.65;1.35;;;;;;;23.59;43.65;101639.88;5029011;28;20234;-57
2023/09/25 11:01:31;;;;;;;2.45;1.00;;;;;;;23.58;43.73;101643.59;5031719;28;20053;-58
2023/09/25 11:03:59;;;;;;;2.47;1.17;;;;;;;23.55;43.34;101638.47;5028110;28;20048;-58
2023/09/25 11:06:28;;;;;;;2.65;1.00;;;;;;;23.55;43.50;101638.47;5031585;28;20050;-58
2023/09/25 11:09:05;;;;;;;1.92;0.77;;;;;;;23.55;43.54;101641.16;5031656;28;20105;-57
2023/09/25 11:11:33;;;;;;;2.35;1.00;;;;;;;23.52;43.17;101637.88;5030372;28;20538;-58
2023/09/25 11:14:01;;;;;;;1.83;1.08;;;;;;;23.51;43.15;101630.78;5029659;28;20046;-58
2023/09/25 11:16:28;;;;;;;2.67;1.10;;;;;;;23.50;43.10;101634.44;5031736;28;20050;-57
2023/09/25 11:19:14;;;;;;;2.28;0.93;;;;;;;23.50;43.17;101629.94;5031435;28;20042;-59
2023/09/25 11:21:46;;;;;;;2.42;1.05;;;;;;;23.50;43.38;101623.66;5027841;28;20064;-59
2023/09/25 11:24:14;;;;;;;3.30;1.07;;;;;;;23.49;43.63;101628.19;5026622;28;20400;-59
2023/09/25 11:26:43;;;;;;;2.95;1.80;;;;;;;23.49;43.75;101633.59;5025084;28;20286;-59
2023/09/25 11:29:11;;;;;;;3.42;1.23;;;;;;;23.50;44.10;101627.22;5024517;28;20376;-59